sensor_id;sensor_type;location;lat;lon;timestamp;pressure;altitude;pressure_sealevel;temperature
71640;BMP280;60912;48.968;10.124;2023-03-23T00:01:51;96072.97;;;10.64
71640;BMP280;60912;48.968;10.124;2023-03-23T00:04:17;96083.03;;;10.77
71640;BMP280;60912;48.968;10.124;2023-03-23T00:06:43;96089.09;;;10.75
71640;BMP280;60912;48.968;10.124;2023-03-23T00:09:11;96087.06;;;10.83
71640;BMP280;60912;48.968;10.124;2023-03-23T00:11:37;96091.69;;;10.81
71640;BMP280;60912;48.968;10.124;2023-03-23T00:14:04;96090.56;;;10.76
71640;BMP280;60912;48.968;10.124;2023-03-23T00:16:32;96085.44;;;10.80
71640;BMP280;60912;48.968;10.124;2023-03-23T00:19:06;96095.66;;;10.95
71640;BMP280;60912;48.968;10.124;2023-03-23T00:21:34;96095.97;;;11.06
71640;BMP280;60912;48.968;10.124;2023-03-23T00:26:55;96093.47;;;10.93
71640;BMP280;60912;48.968;10.124;2023-03-23T00:29:23;96081.50;;;10.91
71640;BMP280;60912;48.968;10.124;2023-03-23T00:31:49;96087.34;;;11.02
71640;BMP280;60912;48.968;10.124;2023-03-23T00:34:17;96084.78;;;11.04
71640;BMP280;60912;48.968;10.124;2023-03-23T00:36:45;96089.00;;;11.05
71640;BMP280;60912;48.968;10.124;2023-03-23T00:39:11;96077.59;;;11.09
71640;BMP280;60912;48.968;10.124;2023-03-23T00:41:36;96074.47;;;11.13
71640;BMP280;60912;48.968;10.124;2023-03-23T00:44:03;96074.59;;;11.22
71640;BMP280;60912;48.968;10.124;2023-03-23T00:46:28;96083.59;;;11.23
71640;BMP280;60912;48.968;10.124;2023-03-23T00:48:55;96086.16;;;11.28
71640;BMP280;60912;48.968;10.124;2023-03-23T00:51:21;96064.59;;;11.34
71640;BMP280;60912;48.968;10.124;2023-03-23T00:53:47;96069.00;;;11.37
71640;BMP280;60912;48.968;10.124;2023-03-23T00:56:13;96055.78;;;11.36
71640;BMP280;60912;48.968;10.124;2023-03-23T00:58:39;96055.00;;;11.43
71640;BMP280;60912;48.968;10.124;2023-03-23T01:01:05;96056.06;;;11.47
71640;BMP280;60912;48.968;10.124;2023-03-23T01:03:30;96054.53;;;11.54
71640;BMP280;60912;48.968;10.124;2023-03-23T01:05:56;96057.41;;;11.64
71640;BMP280;60912;48.968;10.124;2023-03-23T01:08:22;96061.84;;;11.59
71640;BMP280;60912;48.968;10.124;2023-03-23T01:10:48;96060.78;;;11.54
71640;BMP280;60912;48.968;10.124;2023-03-23T01:13:14;96056.00;;;11.55
71640;BMP280;60912;48.968;10.124;2023-03-23T01:15:40;96054.72;;;11.56
71640;BMP280;60912;48.968;10.124;2023-03-23T01:18:07;96039.44;;;11.55
71640;BMP280;60912;48.968;10.124;2023-03-23T01:20:34;96034.63;;;11.63
71640;BMP280;60912;48.968;10.124;2023-03-23T01:23:00;96033.50;;;11.66
71640;BMP280;60912;48.968;10.124;2023-03-23T01:25:35;96027.56;;;11.70
71640;BMP280;60912;48.968;10.124;2023-03-23T01:28:01;96025.72;;;11.72
71640;BMP280;60912;48.968;10.124;2023-03-23T01:30:27;96018.31;;;11.75
71640;BMP280;60912;48.968;10.124;2023-03-23T01:32:54;96021.25;;;11.77
71640;BMP280;60912;48.968;10.124;2023-03-23T01:35:20;96018.31;;;11.75
71640;BMP280;60912;48.968;10.124;2023-03-23T01:37:45;96026.03;;;11.76
71640;BMP280;60912;48.968;10.124;2023-03-23T01:40:13;96023.88;;;11.67
71640;BMP280;60912;48.968;10.124;2023-03-23T01:42:38;96018.72;;;11.71
71640;BMP280;60912;48.968;10.124;2023-03-23T01:47:49;96017.94;;;11.78
71640;BMP280;60912;48.968;10.124;2023-03-23T01:50:18;96013.94;;;11.72
71640;BMP280;60912;48.968;10.124;2023-03-23T01:52:45;96017.19;;;11.78
71640;BMP280;60912;48.968;10.124;2023-03-23T01:55:11;96005.25;;;11.75
71640;BMP280;60912;48.968;10.124;2023-03-23T01:57:37;96009.47;;;11.76
71640;BMP280;60912;48.968;10.124;2023-03-23T02:00:06;96008.34;;;11.79
71640;BMP280;60912;48.968;10.124;2023-03-23T02:02:41;96003.50;;;11.87
71640;BMP280;60912;48.968;10.124;2023-03-23T02:05:11;96000.09;;;11.96
71640;BMP280;60912;48.968;10.124;2023-03-23T02:07:37;96004.25;;;12.05
71640;BMP280;60912;48.968;10.124;2023-03-23T02:10:03;95998.25;;;11.99
71640;BMP280;60912;48.968;10.124;2023-03-23T02:12:28;95990.00;;;11.91
71640;BMP280;60912;48.968;10.124;2023-03-23T02:14:54;95983.59;;;11.89
71640;BMP280;60912;48.968;10.124;2023-03-23T02:17:28;95987.25;;;11.91
71640;BMP280;60912;48.968;10.124;2023-03-23T02:20:19;95981.72;;;11.91
71640;BMP280;60912;48.968;10.124;2023-03-23T02:25:58;95975.47;;;11.91
71640;BMP280;60912;48.968;10.124;2023-03-23T02:34:20;95968.75;;;11.84
71640;BMP280;60912;48.968;10.124;2023-03-23T02:37:04;95969.66;;;11.87
71640;BMP280;60912;48.968;10.124;2023-03-23T02:39:36;95974.09;;;11.82
71640;BMP280;60912;48.968;10.124;2023-03-23T02:42:06;95971.31;;;11.82
71640;BMP280;60912;48.968;10.124;2023-03-23T02:44:34;95962.72;;;11.78
71640;BMP280;60912;48.968;10.124;2023-03-23T02:47:04;95973.03;;;11.78
71640;BMP280;60912;48.968;10.124;2023-03-23T02:49:32;95979.97;;;11.86
71640;BMP280;60912;48.968;10.124;2023-03-23T02:52:04;95972.16;;;11.92
71640;BMP280;60912;48.968;10.124;2023-03-23T02:54:30;95968.44;;;11.97
71640;BMP280;60912;48.968;10.124;2023-03-23T02:56:56;95970.63;;;11.99
71640;BMP280;60912;48.968;10.124;2023-03-23T02:59:22;95967.44;;;12.03
71640;BMP280;60912;48.968;10.124;2023-03-23T03:01:51;95967.44;;;12.03
71640;BMP280;60912;48.968;10.124;2023-03-23T03:04:19;95967.31;;;12.01
71640;BMP280;60912;48.968;10.124;2023-03-23T03:06:58;95956.66;;;11.97
71640;BMP280;60912;48.968;10.124;2023-03-23T03:12:06;95952.09;;;11.92
71640;BMP280;60912;48.968;10.124;2023-03-23T03:14:40;95953.22;;;11.89
71640;BMP280;60912;48.968;10.124;2023-03-23T03:17:25;95941.59;;;11.90
71640;BMP280;60912;48.968;10.124;2023-03-23T03:19:56;95941.00;;;12.00
71640;BMP280;60912;48.968;10.124;2023-03-23T03:22:23;95939.19;;;11.94
71640;BMP280;60912;48.968;10.124;2023-03-23T03:24:55;95928.72;;;11.93
71640;BMP280;60912;48.968;10.124;2023-03-23T03:27:23;95932.22;;;11.93
71640;BMP280;60912;48.968;10.124;2023-03-23T03:29:53;95936.81;;;11.91
71640;BMP280;60912;48.968;10.124;2023-03-23T03:32:22;95926.34;;;11.89
71640;BMP280;60912;48.968;10.124;2023-03-23T03:34:49;95921.16;;;11.93
71640;BMP280;60912;48.968;10.124;2023-03-23T03:37:18;95927.19;;;12.00
71640;BMP280;60912;48.968;10.124;2023-03-23T03:39:45;95925.94;;;12.10
71640;BMP280;60912;48.968;10.124;2023-03-23T03:42:11;95931.78;;;12.14
71640;BMP280;60912;48.968;10.124;2023-03-23T03:44:36;95929.75;;;12.15
71640;BMP280;60912;48.968;10.124;2023-03-23T03:47:02;95928.47;;;12.16
71640;BMP280;60912;48.968;10.124;2023-03-23T03:49:28;95930.91;;;12.12
71640;BMP280;60912;48.968;10.124;2023-03-23T03:51:53;95921.00;;;12.09
71640;BMP280;60912;48.968;10.124;2023-03-23T03:54:19;95930.25;;;12.04
71640;BMP280;60912;48.968;10.124;2023-03-23T03:56:44;95927.47;;;12.04
71640;BMP280;60912;48.968;10.124;2023-03-23T03:59:11;95929.28;;;12.09
71640;BMP280;60912;48.968;10.124;2023-03-23T04:01:38;95923.19;;;12.10
71640;BMP280;60912;48.968;10.124;2023-03-23T04:04:04;95925.94;;;12.10
71640;BMP280;60912;48.968;10.124;2023-03-23T04:06:32;95925.56;;;12.14
71640;BMP280;60912;48.968;10.124;2023-03-23T04:08:58;95919.59;;;12.17
71640;BMP280;60912;48.968;10.124;2023-03-23T04:11:25;95927.31;;;12.19
71640;BMP280;60912;48.968;10.124;2023-03-23T04:13:51;95929.53;;;12.20
71640;BMP280;60912;48.968;10.124;2023-03-23T04:16:16;95936.41;;;12.29
71640;BMP280;60912;48.968;10.124;2023-03-23T04:18:42;95932.84;;;12.36
71640;BMP280;60912;48.968;10.124;2023-03-23T04:21:10;95931.44;;;12.44
71640;BMP280;60912;48.968;10.124;2023-03-23T04:23:36;95927.84;;;12.52
71640;BMP280;60912;48.968;10.124;2023-03-23T04:26:02;95924.97;;;12.59
71640;BMP280;60912;48.968;10.124;2023-03-23T04:28:28;95923.41;;;12.66
71640;BMP280;60912;48.968;10.124;2023-03-23T04:30:55;95923.75;;;12.70
71640;BMP280;60912;48.968;10.124;2023-03-23T04:33:25;95918.53;;;12.74
71640;BMP280;60912;48.968;10.124;2023-03-23T04:35:55;95929.44;;;12.72
71640;BMP280;60912;48.968;10.124;2023-03-23T04:38:22;95926.09;;;12.73
71640;BMP280;60912;48.968;10.124;2023-03-23T04:40:50;95915.19;;;12.75
71640;BMP280;60912;48.968;10.124;2023-03-23T04:43:23;95916.81;;;12.78
71640;BMP280;60912;48.968;10.124;2023-03-23T04:45:53;95918.25;;;12.79
71640;BMP280;60912;48.968;10.124;2023-03-23T04:48:24;95918.41;;;12.81
71640;BMP280;60912;48.968;10.124;2023-03-23T04:50:51;95918.41;;;12.81
71640;BMP280;60912;48.968;10.124;2023-03-23T04:53:17;95918.59;;;12.83
71640;BMP280;60912;48.968;10.124;2023-03-23T04:55:48;95917.28;;;12.84
71640;BMP280;60912;48.968;10.124;2023-03-23T04:58:15;95920.91;;;12.87
71640;BMP280;60912;48.968;10.124;2023-03-23T05:00:41;95924.59;;;12.90
71640;BMP280;60912;48.968;10.124;2023-03-23T05:03:09;95913.34;;;12.87
71640;BMP280;60912;48.968;10.124;2023-03-23T05:05:35;95927.19;;;12.87
71640;BMP280;60912;48.968;10.124;2023-03-23T05:08:00;95929.94;;;12.87
71640;BMP280;60912;48.968;10.124;2023-03-23T05:10:26;95923.69;;;12.87
71640;BMP280;60912;48.968;10.124;2023-03-23T05:12:52;95925.56;;;12.84
71640;BMP280;60912;48.968;10.124;2023-03-23T05:15:18;95921.81;;;12.90
71640;BMP280;60912;48.968;10.124;2023-03-23T05:17:43;95921.81;;;12.90
71640;BMP280;60912;48.968;10.124;2023-03-23T05:20:11;95927.59;;;12.84
71640;BMP280;60912;48.968;10.124;2023-03-23T05:22:37;95928.75;;;12.81
71640;BMP280;60912;48.968;10.124;2023-03-23T05:25:04;95923.63;;;12.77
71640;BMP280;60912;48.968;10.124;2023-03-23T05:27:30;95920.00;;;12.75
71640;BMP280;60912;48.968;10.124;2023-03-23T05:29:56;95924.38;;;12.78
71640;BMP280;60912;48.968;10.124;2023-03-23T05:32:24;95911.94;;;12.69
71640;BMP280;60912;48.968;10.124;2023-03-23T05:35:04;95912.81;;;12.62
71640;BMP280;60912;48.968;10.124;2023-03-23T05:37:30;95906.09;;;12.65
71640;BMP280;60912;48.968;10.124;2023-03-23T05:39:58;95919.09;;;12.72
71640;BMP280;60912;48.968;10.124;2023-03-23T05:42:27;95922.47;;;12.80
71640;BMP280;60912;48.968;10.124;2023-03-23T05:44:53;95920.78;;;12.85
71640;BMP280;60912;48.968;10.124;2023-03-23T05:47:19;95920.50;;;12.91
71640;BMP280;60912;48.968;10.124;2023-03-23T05:49:44;95919.50;;;12.96
71640;BMP280;60912;48.968;10.124;2023-03-23T05:52:09;95910.34;;;13.03
71640;BMP280;60912;48.968;10.124;2023-03-23T05:54:35;95919.13;;;13.18
71640;BMP280;60912;48.968;10.124;2023-03-23T05:57:01;95908.09;;;13.28
71640;BMP280;60912;48.968;10.124;2023-03-23T05:59:27;95906.09;;;13.38
71640;BMP280;60912;48.968;10.124;2023-03-23T06:01:52;95915.91;;;13.49
71640;BMP280;60912;48.968;10.124;2023-03-23T06:04:21;95912.25;;;13.56
71640;BMP280;60912;48.968;10.124;2023-03-23T06:06:50;95911.81;;;13.59
71640;BMP280;60912;48.968;10.124;2023-03-23T06:09:17;95906.88;;;13.67
71640;BMP280;60912;48.968;10.124;2023-03-23T06:11:43;95912.31;;;13.75
71640;BMP280;60912;48.968;10.124;2023-03-23T06:14:08;95911.84;;;13.78
71640;BMP280;60912;48.968;10.124;2023-03-23T06:16:33;95912.00;;;13.80
71640;BMP280;60912;48.968;10.124;2023-03-23T06:18:59;95908.94;;;13.86
71640;BMP280;60912;48.968;10.124;2023-03-23T06:21:26;95911.69;;;13.96
71640;BMP280;60912;48.968;10.124;2023-03-23T06:23:52;95922.66;;;14.03
71640;BMP280;60912;48.968;10.124;2023-03-23T06:26:18;95926.28;;;14.06
71640;BMP280;60912;48.968;10.124;2023-03-23T06:28:44;95926.88;;;14.14
71640;BMP280;60912;48.968;10.124;2023-03-23T06:31:10;95918.97;;;14.20
71640;BMP280;60912;48.968;10.124;2023-03-23T06:33:37;95923.91;;;14.31
71640;BMP280;60912;48.968;10.124;2023-03-23T06:36:03;95922.47;;;14.40
71640;BMP280;60912;48.968;10.124;2023-03-23T06:38:30;95926.41;;;14.46
71640;BMP280;60912;48.968;10.124;2023-03-23T06:40:55;95930.19;;;14.51
71640;BMP280;60912;48.968;10.124;2023-03-23T06:43:22;95927.84;;;14.66
71640;BMP280;60912;48.968;10.124;2023-03-23T06:45:48;95928.94;;;14.83
71640;BMP280;60912;48.968;10.124;2023-03-23T06:48:14;95941.88;;;14.99
71640;BMP280;60912;48.968;10.124;2023-03-23T06:50:43;95932.81;;;14.99
71640;BMP280;60912;48.968;10.124;2023-03-23T06:53:09;95940.22;;;15.06
71640;BMP280;60912;48.968;10.124;2023-03-23T06:55:34;95939.19;;;15.11
71640;BMP280;60912;48.968;10.124;2023-03-23T06:58:00;95936.13;;;15.16
71640;BMP280;60912;48.968;10.124;2023-03-23T07:00:26;95940.28;;;15.27
71640;BMP280;60912;48.968;10.124;2023-03-23T07:02:51;95944.63;;;15.30
71640;BMP280;60912;48.968;10.124;2023-03-23T07:05:17;95943.75;;;15.37
71640;BMP280;60912;48.968;10.124;2023-03-23T07:07:42;95944.28;;;15.45
71640;BMP280;60912;48.968;10.124;2023-03-23T07:10:09;95934.69;;;15.58
71640;BMP280;60912;48.968;10.124;2023-03-23T07:12:35;95936.72;;;15.67
71640;BMP280;60912;48.968;10.124;2023-03-23T07:15:02;95945.88;;;15.69
71640;BMP280;60912;48.968;10.124;2023-03-23T07:17:28;95954.50;;;15.74
71640;BMP280;60912;48.968;10.124;2023-03-23T07:19:53;95948.13;;;15.83
71640;BMP280;60912;48.968;10.124;2023-03-23T07:22:19;95951.69;;;15.95
71640;BMP280;60912;48.968;10.124;2023-03-23T07:24:44;95945.41;;;15.94
71640;BMP280;60912;48.968;10.124;2023-03-23T07:27:10;95956.47;;;16.04
71640;BMP280;60912;48.968;10.124;2023-03-23T07:29:35;95951.88;;;16.08
71640;BMP280;60912;48.968;10.124;2023-03-23T07:32:04;95959.09;;;16.02
71640;BMP280;60912;48.968;10.124;2023-03-23T07:34:30;95961.41;;;16.05
71640;BMP280;60912;48.968;10.124;2023-03-23T07:36:55;95960.06;;;16.06
71640;BMP280;60912;48.968;10.124;2023-03-23T07:39:21;95959.41;;;16.17
71640;BMP280;60912;48.968;10.124;2023-03-23T07:41:48;95971.78;;;16.26
71640;BMP280;60912;48.968;10.124;2023-03-23T07:44:14;95969.91;;;16.19
71640;BMP280;60912;48.968;10.124;2023-03-23T07:46:39;95976.88;;;16.30
71640;BMP280;60912;48.968;10.124;2023-03-23T07:49:05;95981.59;;;16.39
71640;BMP280;60912;48.968;10.124;2023-03-23T07:51:31;95975.25;;;16.48
71640;BMP280;60912;48.968;10.124;2023-03-23T07:53:56;95976.31;;;16.43
71640;BMP280;60912;48.968;10.124;2023-03-23T07:56:22;95988.53;;;16.49
71640;BMP280;60912;48.968;10.124;2023-03-23T07:58:48;95976.22;;;16.52
71640;BMP280;60912;48.968;10.124;2023-03-23T08:01:13;95987.44;;;16.43
71640;BMP280;60912;48.968;10.124;2023-03-23T08:03:39;95984.13;;;16.35
71640;BMP280;60912;48.968;10.124;2023-03-23T08:06:05;95987.25;;;16.29
71640;BMP280;60912;48.968;10.124;2023-03-23T08:08:31;95983.03;;;16.28
71640;BMP280;60912;48.968;10.124;2023-03-23T08:10:57;95990.88;;;16.32
71640;BMP280;60912;48.968;10.124;2023-03-23T08:13:22;95988.59;;;16.28
71640;BMP280;60912;48.968;10.124;2023-03-23T08:15:48;95999.03;;;16.39
71640;BMP280;60912;48.968;10.124;2023-03-23T08:18:13;96000.53;;;16.52
71640;BMP280;60912;48.968;10.124;2023-03-23T08:20:39;95997.06;;;16.63
71640;BMP280;60912;48.968;10.124;2023-03-23T08:23:05;95992.41;;;16.56
71640;BMP280;60912;48.968;10.124;2023-03-23T08:25:31;95997.28;;;16.55
71640;BMP280;60912;48.968;10.124;2023-03-23T08:27:58;95996.69;;;16.68
71640;BMP280;60912;48.968;10.124;2023-03-23T08:30:24;96000.72;;;16.77
71640;BMP280;60912;48.968;10.124;2023-03-23T08:32:51;96002.66;;;16.86
71640;BMP280;60912;48.968;10.124;2023-03-23T08:35:18;96004.22;;;16.78
71640;BMP280;60912;48.968;10.124;2023-03-23T08:37:44;96006.75;;;16.74
71640;BMP280;60912;48.968;10.124;2023-03-23T08:40:12;96008.69;;;16.83
71640;BMP280;60912;48.968;10.124;2023-03-23T08:42:43;96013.53;;;16.82
71640;BMP280;60912;48.968;10.124;2023-03-23T08:45:11;96016.81;;;16.90
71640;BMP280;60912;48.968;10.124;2023-03-23T08:47:37;96020.09;;;16.87
71640;BMP280;60912;48.968;10.124;2023-03-23T08:50:05;96026.16;;;17.06
71640;BMP280;60912;48.968;10.124;2023-03-23T08:52:30;96034.41;;;17.16
71640;BMP280;60912;48.968;10.124;2023-03-23T08:54:56;96030.78;;;17.25
71640;BMP280;60912;48.968;10.124;2023-03-23T08:57:23;96029.81;;;17.32
71640;BMP280;60912;48.968;10.124;2023-03-23T08:59:49;96033.94;;;17.31
71640;BMP280;60912;48.968;10.124;2023-03-23T09:02:15;96036.63;;;17.29
71640;BMP280;60912;48.968;10.124;2023-03-23T09:04:41;96036.38;;;17.37
71640;BMP280;60912;48.968;10.124;2023-03-23T09:07:10;96039.13;;;17.72
71640;BMP280;60912;48.968;10.124;2023-03-23T09:09:38;96035.25;;;17.77
71640;BMP280;60912;48.968;10.124;2023-03-23T09:12:07;96038.38;;;17.83
71640;BMP280;60912;48.968;10.124;2023-03-23T09:14:34;96030.50;;;17.91
71640;BMP280;60912;48.968;10.124;2023-03-23T09:17:00;96035.41;;;17.67
71640;BMP280;60912;48.968;10.124;2023-03-23T09:19:29;96038.41;;;17.36
71640;BMP280;60912;48.968;10.124;2023-03-23T09:21:55;96049.22;;;17.53
71640;BMP280;60912;48.968;10.124;2023-03-23T09:24:21;96049.44;;;17.46
71640;BMP280;60912;48.968;10.124;2023-03-23T09:26:47;96048.72;;;17.34
71640;BMP280;60912;48.968;10.124;2023-03-23T09:29:13;96055.00;;;17.46
71640;BMP280;60912;48.968;10.124;2023-03-23T09:31:39;96053.09;;;17.48
71640;BMP280;60912;48.968;10.124;2023-03-23T09:34:07;96046.28;;;17.51
71640;BMP280;60912;48.968;10.124;2023-03-23T09:36:35;96051.13;;;17.62
71640;BMP280;60912;48.968;10.124;2023-03-23T09:39:01;96065.06;;;17.62
71640;BMP280;60912;48.968;10.124;2023-03-23T09:42:05;96056.22;;;17.78
71640;BMP280;60912;48.968;10.124;2023-03-23T09:44:57;96060.06;;;17.84
71640;BMP280;60912;48.968;10.124;2023-03-23T09:50:12;96070.72;;;17.99
71640;BMP280;60912;48.968;10.124;2023-03-23T09:53:01;96085.28;;;17.75
71640;BMP280;60912;48.968;10.124;2023-03-23T09:55:28;96088.44;;;17.69
71640;BMP280;60912;48.968;10.124;2023-03-23T10:03:20;96092.81;;;17.60
71640;BMP280;60912;48.968;10.124;2023-03-23T10:05:47;96086.88;;;17.54
71640;BMP280;60912;48.968;10.124;2023-03-23T10:08:23;96092.69;;;17.47
71640;BMP280;60912;48.968;10.124;2023-03-23T10:16:04;96097.03;;;17.85
71640;BMP280;60912;48.968;10.124;2023-03-23T10:18:37;96102.50;;;17.83
71640;BMP280;60912;48.968;10.124;2023-03-23T10:21:03;96101.38;;;18.11
71640;BMP280;60912;48.968;10.124;2023-03-23T10:24:00;96093.75;;;17.88
71640;BMP280;60912;48.968;10.124;2023-03-23T10:29:36;96102.50;;;17.48
71640;BMP280;60912;48.968;10.124;2023-03-23T10:34:50;96098.78;;;17.10
71640;BMP280;60912;48.968;10.124;2023-03-23T10:42:32;96110.91;;;17.15
71640;BMP280;60912;48.968;10.124;2023-03-23T10:45:00;96113.13;;;17.28
71640;BMP280;60912;48.968;10.124;2023-03-23T10:47:26;96117.22;;;17.15
71640;BMP280;60912;48.968;10.124;2023-03-23T10:50:00;96111.66;;;17.15
71640;BMP280;60912;48.968;10.124;2023-03-23T10:52:39;96122.66;;;17.13
71640;BMP280;60912;48.968;10.124;2023-03-23T10:57:36;96126.28;;;17.16
71640;BMP280;60912;48.968;10.124;2023-03-23T11:02:46;96120.28;;;17.31
71640;BMP280;60912;48.968;10.124;2023-03-23T11:05:23;96117.50;;;17.31
71640;BMP280;60912;48.968;10.124;2023-03-23T11:07:53;96122.84;;;17.39
71640;BMP280;60912;48.968;10.124;2023-03-23T11:10:28;96128.22;;;17.13
71640;BMP280;60912;48.968;10.124;2023-03-23T11:12:59;96141.06;;;16.86
71640;BMP280;60912;48.968;10.124;2023-03-23T11:18:04;96129.69;;;16.82
71640;BMP280;60912;48.968;10.124;2023-03-23T11:20:39;96140.34;;;16.85
71640;BMP280;60912;48.968;10.124;2023-03-23T11:23:17;96136.97;;;16.87
71640;BMP280;60912;48.968;10.124;2023-03-23T11:25:54;96131.16;;;17.27
71640;BMP280;60912;48.968;10.124;2023-03-23T11:28:20;96124.31;;;17.63
71640;BMP280;60912;48.968;10.124;2023-03-23T11:30:46;96131.06;;;17.95
71640;BMP280;60912;48.968;10.124;2023-03-23T11:33:12;96127.91;;;18.24
71640;BMP280;60912;48.968;10.124;2023-03-23T11:35:43;96126.22;;;18.07
71640;BMP280;60912;48.968;10.124;2023-03-23T11:38:17;96126.75;;;17.92
71640;BMP280;60912;48.968;10.124;2023-03-23T11:40:49;96128.44;;;17.97
71640;BMP280;60912;48.968;10.124;2023-03-23T11:43:19;96117.63;;;18.03
71640;BMP280;60912;48.968;10.124;2023-03-23T11:46:11;96109.19;;;18.38
71640;BMP280;60912;48.968;10.124;2023-03-23T11:51:21;96107.84;;;18.76
71640;BMP280;60912;48.968;10.124;2023-03-23T11:56:44;96105.94;;;18.92
71640;BMP280;60912;48.968;10.124;2023-03-23T11:59:12;96110.78;;;19.16
71640;BMP280;60912;48.968;10.124;2023-03-23T12:12:08;96110.72;;;18.78
71640;BMP280;60912;48.968;10.124;2023-03-23T12:14:59;96107.00;;;18.98
71640;BMP280;60912;48.968;10.124;2023-03-23T12:31:25;96091.91;;;19.56
71640;BMP280;60912;48.968;10.124;2023-03-23T12:34:17;96097.38;;;19.54
71640;BMP280;60912;48.968;10.124;2023-03-23T12:42:51;96084.88;;;19.02
71640;BMP280;60912;48.968;10.124;2023-03-23T12:48:18;96074.81;;;18.10
71640;BMP280;60912;48.968;10.124;2023-03-23T12:51:13;96084.50;;;18.21
71640;BMP280;60912;48.968;10.124;2023-03-23T12:53:57;96080.31;;;18.33
71640;BMP280;60912;48.968;10.124;2023-03-23T12:59:34;96075.69;;;19.13
71640;BMP280;60912;48.968;10.124;2023-03-23T13:02:01;96070.34;;;19.31
71640;BMP280;60912;48.968;10.124;2023-03-23T13:04:35;96077.38;;;19.32
71640;BMP280;60912;48.968;10.124;2023-03-23T13:07:05;96072.66;;;19.48
71640;BMP280;60912;48.968;10.124;2023-03-23T13:09:46;96072.97;;;19.54
71640;BMP280;60912;48.968;10.124;2023-03-23T13:12:14;96076.00;;;19.06
71640;BMP280;60912;48.968;10.124;2023-03-23T13:15:13;96065.00;;;18.71
71640;BMP280;60912;48.968;10.124;2023-03-23T13:17:47;96056.22;;;19.02
71640;BMP280;60912;48.968;10.124;2023-03-23T13:23:41;96062.72;;;19.45
71640;BMP280;60912;48.968;10.124;2023-03-23T13:26:12;96063.28;;;19.03
71640;BMP280;60912;48.968;10.124;2023-03-23T13:31:16;96058.09;;;19.11
71640;BMP280;60912;48.968;10.124;2023-03-23T13:33:46;96058.81;;;19.11
71640;BMP280;60912;48.968;10.124;2023-03-23T13:36:27;96059.38;;;18.83
71640;BMP280;60912;48.968;10.124;2023-03-23T13:38:53;96055.47;;;18.62
71640;BMP280;60912;48.968;10.124;2023-03-23T13:41:20;96046.59;;;18.41
71640;BMP280;60912;48.968;10.124;2023-03-23T13:43:47;96044.66;;;18.43
71640;BMP280;60912;48.968;10.124;2023-03-23T13:46:25;96032.34;;;18.74
71640;BMP280;60912;48.968;10.124;2023-03-23T13:49:18;96023.97;;;18.74
71640;BMP280;60912;48.968;10.124;2023-03-23T13:56:54;96032.41;;;19.01
71640;BMP280;60912;48.968;10.124;2023-03-23T14:01:53;96025.09;;;18.68
71640;BMP280;60912;48.968;10.124;2023-03-23T14:04:19;96019.13;;;18.74
71640;BMP280;60912;48.968;10.124;2023-03-23T14:06:47;96021.75;;;18.58
71640;BMP280;60912;48.968;10.124;2023-03-23T14:09:17;96018.97;;;18.33
71640;BMP280;60912;48.968;10.124;2023-03-23T14:11:51;96018.28;;;18.46
71640;BMP280;60912;48.968;10.124;2023-03-23T14:14:31;96019.63;;;18.70
71640;BMP280;60912;48.968;10.124;2023-03-23T14:17:13;96021.72;;;18.84
71640;BMP280;60912;48.968;10.124;2023-03-23T14:19:40;96013.56;;;18.88
71640;BMP280;60912;48.968;10.124;2023-03-23T14:22:22;96015.59;;;18.74
71640;BMP280;60912;48.968;10.124;2023-03-23T14:24:48;96010.25;;;18.78
71640;BMP280;60912;48.968;10.124;2023-03-23T14:27:17;96011.69;;;18.79
71640;BMP280;60912;48.968;10.124;2023-03-23T14:29:44;96011.38;;;18.86
71640;BMP280;60912;48.968;10.124;2023-03-23T14:32:16;96015.34;;;18.81
71640;BMP280;60912;48.968;10.124;2023-03-23T14:34:43;96020.84;;;18.67
71640;BMP280;60912;48.968;10.124;2023-03-23T14:37:12;96013.22;;;18.68
71640;BMP280;60912;48.968;10.124;2023-03-23T14:39:45;96019.25;;;18.76
71640;BMP280;60912;48.968;10.124;2023-03-23T14:42:14;96017.78;;;18.75
71640;BMP280;60912;48.968;10.124;2023-03-23T14:44:49;96005.97;;;18.63
71640;BMP280;60912;48.968;10.124;2023-03-23T14:47:56;96002.41;;;18.49
71640;BMP280;60912;48.968;10.124;2023-03-23T14:50:27;95995.16;;;18.44
71640;BMP280;60912;48.968;10.124;2023-03-23T14:52:57;95995.31;;;18.34
71640;BMP280;60912;48.968;10.124;2023-03-23T14:55:23;95995.63;;;18.40
71640;BMP280;60912;48.968;10.124;2023-03-23T14:57:49;95996.44;;;18.29
71640;BMP280;60912;48.968;10.124;2023-03-23T15:00:22;96000.94;;;18.23
71640;BMP280;60912;48.968;10.124;2023-03-23T15:02:54;96001.66;;;18.23
71640;BMP280;60912;48.968;10.124;2023-03-23T15:05:30;95994.75;;;18.24
71640;BMP280;60912;48.968;10.124;2023-03-23T15:08:02;95990.91;;;18.17
71640;BMP280;60912;48.968;10.124;2023-03-23T15:10:29;95998.28;;;18.25
71640;BMP280;60912;48.968;10.124;2023-03-23T15:12:54;95998.81;;;18.09
71640;BMP280;60912;48.968;10.124;2023-03-23T15:15:33;96003.78;;;18.11
71640;BMP280;60912;48.968;10.124;2023-03-23T15:17:59;96016.63;;;18.16
71640;BMP280;60912;48.968;10.124;2023-03-23T15:20:31;96004.25;;;18.19
71640;BMP280;60912;48.968;10.124;2023-03-23T15:23:05;96005.56;;;18.18
71640;BMP280;60912;48.968;10.124;2023-03-23T15:25:33;95999.91;;;18.16
71640;BMP280;60912;48.968;10.124;2023-03-23T15:30:50;96006.88;;;17.92
71640;BMP280;60912;48.968;10.124;2023-03-23T15:33:17;96003.88;;;17.76
71640;BMP280;60912;48.968;10.124;2023-03-23T15:35:50;96003.38;;;17.80
71640;BMP280;60912;48.968;10.124;2023-03-23T15:38:45;96013.66;;;17.89
71640;BMP280;60912;48.968;10.124;2023-03-23T15:41:29;96004.59;;;17.77
71640;BMP280;60912;48.968;10.124;2023-03-23T15:44:09;96009.09;;;17.82
71640;BMP280;60912;48.968;10.124;2023-03-23T15:46:35;96004.94;;;17.83
71640;BMP280;60912;48.968;10.124;2023-03-23T15:51:29;96009.97;;;17.98
71640;BMP280;60912;48.968;10.124;2023-03-23T15:53:56;96014.22;;;17.99
71640;BMP280;60912;48.968;10.124;2023-03-23T15:56:22;96016.19;;;17.96
71640;BMP280;60912;48.968;10.124;2023-03-23T15:58:48;96018.84;;;17.94